createdAt,value
2022-11-20T00:01:38.324Z,12.10
2022-11-20T00:04:06.549Z,12.36
2022-11-20T00:06:34.570Z,12.10
2022-11-20T00:09:02.927Z,12.06
2022-11-20T00:11:32.768Z,12.02
2022-11-20T00:14:03.178Z,11.99
2022-11-20T00:16:34.758Z,12.06
2022-11-20T00:19:02.876Z,11.97
2022-11-20T00:21:31.787Z,11.85
2022-11-20T00:24:00.302Z,12.04
2022-11-20T00:26:29.771Z,11.76
2022-11-20T00:29:00.510Z,11.81
2022-11-20T00:31:30.023Z,11.84
2022-11-20T00:33:58.857Z,11.66
2022-11-20T00:36:29.439Z,11.64
2022-11-20T00:38:59.912Z,11.60
2022-11-20T00:41:30.298Z,11.49
2022-11-20T00:43:59.078Z,11.61
2022-11-20T00:46:29.203Z,11.63
2022-11-20T00:48:58.295Z,11.57
2022-11-20T00:51:27.987Z,11.60
2022-11-20T00:53:58.282Z,11.35
2022-11-20T00:56:26.611Z,11.37
2022-11-20T00:58:55.569Z,11.67
2022-11-20T01:01:26.615Z,11.52
2022-11-20T01:03:58.337Z,11.41
2022-11-20T01:06:28.100Z,11.33
2022-11-20T01:08:59.557Z,11.39
2022-11-20T01:11:36.317Z,11.33
2022-11-20T01:14:08.048Z,11.34
2022-11-20T01:16:38.847Z,11.27
2022-11-20T01:19:12.897Z,11.39
2022-11-20T01:21:45.645Z,11.22
2022-11-20T01:24:17.299Z,11.37
2022-11-20T01:26:48.375Z,11.41
2022-11-20T01:29:23.341Z,11.44
2022-11-20T01:31:53.705Z,11.36
2022-11-20T01:34:23.716Z,11.20
2022-11-20T01:36:53.960Z,11.34
2022-11-20T01:39:25.344Z,11.22
2022-11-20T01:42:13.307Z,11.29
2022-11-20T01:44:56.676Z,11.02
2022-11-20T01:47:37.026Z,11.00
2022-11-20T01:50:15.765Z,11.08
2022-11-20T01:53:00.786Z,10.99
2022-11-20T01:55:33.699Z,10.95
2022-11-20T01:58:03.020Z,11.03
2022-11-20T02:00:32.109Z,11.23
2022-11-20T02:03:05.019Z,11.16
2022-11-20T02:05:35.850Z,10.92
2022-11-20T02:08:06.823Z,10.81
2022-11-20T02:10:35.790Z,10.91
2022-11-20T02:13:23.836Z,10.92
2022-11-20T02:15:53.079Z,10.88
2022-11-20T02:18:22.284Z,10.87
2022-11-20T02:20:58.958Z,10.95
2022-11-20T02:23:33.049Z,10.98
2022-11-20T02:26:05.551Z,10.73
2022-11-20T02:28:34.361Z,10.88
2022-11-20T02:31:02.629Z,10.91
2022-11-20T02:33:30.550Z,10.96
2022-11-20T02:35:58.791Z,10.61
2022-11-20T02:38:26.751Z,10.84
2022-11-20T02:40:55.795Z,10.80
2022-11-20T02:43:24.813Z,10.70
2022-11-20T02:45:53.006Z,10.86
2022-11-20T02:48:20.780Z,10.68
2022-11-20T02:50:50.130Z,10.87
2022-11-20T02:53:17.872Z,10.83
2022-11-20T02:55:46.040Z,10.57
2022-11-20T02:58:13.869Z,10.62
2022-11-20T03:00:42.082Z,10.51
2022-11-20T03:03:09.923Z,10.57
2022-11-20T03:05:39.430Z,10.48
2022-11-20T03:08:07.391Z,10.66
2022-11-20T03:10:35.621Z,10.38
2022-11-20T03:13:03.499Z,10.34
2022-11-20T03:15:32.061Z,10.40
2022-11-20T03:18:00.030Z,10.35
2022-11-20T03:20:28.259Z,10.42
2022-11-20T03:22:56.661Z,10.38
2022-11-20T03:25:25.077Z,10.52
2022-11-20T03:27:53.040Z,10.38
2022-11-20T03:30:21.260Z,10.37
2022-11-20T03:32:49.660Z,10.31
2022-11-20T03:35:17.793Z,10.36
2022-11-20T03:37:47.102Z,10.36
2022-11-20T03:40:15.389Z,10.26
2022-11-20T03:42:46.170Z,10.37
2022-11-20T03:45:19.152Z,10.17
2022-11-20T03:47:47.830Z,10.20
2022-11-20T03:50:16.272Z,10.23
2022-11-20T03:52:44.182Z,10.24
2022-11-20T03:55:12.483Z,10.23
2022-11-20T03:57:40.348Z,10.48
2022-11-20T04:00:10.492Z,10.20
2022-11-20T04:02:38.320Z,10.16
2022-11-20T04:05:07.050Z,10.33
2022-11-20T04:07:35.892Z,10.38
2022-11-20T04:10:04.539Z,10.23
2022-11-20T04:12:35.912Z,10.28
2022-11-20T04:15:04.400Z,10.28
2022-11-20T04:17:32.220Z,10.09
2022-11-20T04:20:01.072Z,10.23
2022-11-20T04:22:29.013Z,9.96
2022-11-20T04:24:57.221Z,9.79
2022-11-20T04:27:25.101Z,10.03
2022-11-20T04:29:53.241Z,10.01
2022-11-20T04:32:21.069Z,10.10
2022-11-20T04:34:49.461Z,10.20
2022-11-20T04:37:18.179Z,9.91
2022-11-20T04:39:47.029Z,9.95
2022-11-20T04:42:30.140Z,9.86
2022-11-20T04:44:59.735Z,9.97
2022-11-20T04:47:27.640Z,10.02
2022-11-20T04:49:55.884Z,9.82
2022-11-20T04:52:23.804Z,9.83
2022-11-20T04:54:54.012Z,9.68
2022-11-20T04:57:21.942Z,9.96
2022-11-20T04:59:50.088Z,9.62
2022-11-20T05:02:18.021Z,9.62
2022-11-20T05:04:46.399Z,9.68
2022-11-20T05:07:14.443Z,9.67
2022-11-20T05:09:43.150Z,9.68
2022-11-20T05:12:11.326Z,9.86
2022-11-20T05:14:39.489Z,9.83
2022-11-20T05:17:07.621Z,9.72
2022-11-20T05:19:36.831Z,9.55
2022-11-20T05:22:06.655Z,9.67
2022-11-20T05:24:35.970Z,9.64
2022-11-20T05:27:03.859Z,9.50
2022-11-20T05:29:32.144Z,9.06
2022-11-20T05:32:00.036Z,9.02
2022-11-20T05:34:28.180Z,9.12
2022-11-20T05:36:55.992Z,9.19
2022-11-20T05:39:24.266Z,9.26
2022-11-20T05:42:12.429Z,9.44
2022-11-20T05:44:43.129Z,9.30
2022-11-20T05:47:11.750Z,9.25
2022-11-20T05:49:39.969Z,9.23
2022-11-20T05:52:07.831Z,9.18
2022-11-20T05:54:37.298Z,9.24
2022-11-20T05:57:06.200Z,9.32
2022-11-20T05:59:34.341Z,9.20
2022-11-20T06:02:02.190Z,9.16
2022-11-20T06:04:30.402Z,9.28
2022-11-20T06:06:58.238Z,9.30
2022-11-20T06:09:26.440Z,9.05
2022-11-20T06:11:54.395Z,8.99
2022-11-20T06:14:22.540Z,9.13
2022-11-20T06:16:50.993Z,9.45
2022-11-20T06:19:19.299Z,9.28
2022-11-20T06:21:50.723Z,9.22
2022-11-20T06:24:19.290Z,9.23
2022-11-20T06:26:47.190Z,9.26
2022-11-20T06:29:15.429Z,9.25
2022-11-20T06:31:43.792Z,9.22
2022-11-20T06:34:12.110Z,9.15
2022-11-20T06:36:41.058Z,9.18
2022-11-20T06:39:09.572Z,9.31
2022-11-20T06:41:38.453Z,9.11
2022-11-20T06:44:06.984Z,9.12
2022-11-20T06:46:35.112Z,9.09
2022-11-20T06:49:03.953Z,9.24
2022-11-20T06:51:31.942Z,9.29
2022-11-20T06:54:02.184Z,9.35
2022-11-20T06:56:30.382Z,9.23
2022-11-20T06:58:59.913Z,9.16
2022-11-20T07:01:28.038Z,9.15
2022-11-20T07:03:56.573Z,9.34
2022-11-20T07:06:24.583Z,9.41
2022-11-20T07:08:54.067Z,9.51
2022-11-20T07:11:22.148Z,9.56
2022-11-20T07:13:52.396Z,9.51
2022-11-20T07:16:20.405Z,9.68
2022-11-20T07:18:50.701Z,9.67
2022-11-20T07:21:19.133Z,10.40
2022-11-20T07:23:48.008Z,11.79
2022-11-20T07:26:16.034Z,12.92
2022-11-20T07:28:47.166Z,13.44
2022-11-20T07:31:19.059Z,13.85
2022-11-20T07:33:49.594Z,13.08
2022-11-20T07:36:17.602Z,11.88
2022-11-20T07:38:45.996Z,11.80
2022-11-20T07:41:14.025Z,11.68
2022-11-20T07:43:45.967Z,11.63
2022-11-20T07:46:13.939Z,11.54
2022-11-20T07:48:42.374Z,11.45
2022-11-20T07:51:10.510Z,11.82
2022-11-20T07:53:38.843Z,11.97
2022-11-20T07:56:07.501Z,12.27
2022-11-20T07:58:35.852Z,12.43
2022-11-20T08:01:06.431Z,12.67
2022-11-20T08:03:34.923Z,12.82
2022-11-20T08:06:03.824Z,12.85
2022-11-20T08:08:33.816Z,13.15
2022-11-20T08:11:21.847Z,13.26
2022-11-20T08:14:08.606Z,13.58
2022-11-20T08:16:36.768Z,13.82
2022-11-20T08:19:05.814Z,13.84
2022-11-20T08:21:38.157Z,14.08
2022-11-20T08:24:09.142Z,14.13
2022-11-20T08:26:39.573Z,14.69
2022-11-20T08:29:08.795Z,14.41
2022-11-20T08:31:37.188Z,14.59
2022-11-20T08:34:25.543Z,14.86
2022-11-20T08:36:53.603Z,14.85
2022-11-20T08:39:22.322Z,15.10
2022-11-20T08:41:50.582Z,15.15
2022-11-20T08:44:18.892Z,15.23
2022-11-20T08:46:48.303Z,15.38
2022-11-20T08:49:17.855Z,15.68
2022-11-20T08:51:46.511Z,15.59
2022-11-20T08:54:15.006Z,15.87
2022-11-20T08:56:43.163Z,16.23
2022-11-20T08:59:36.794Z,16.35
2022-11-20T09:01:59.782Z,16.50
2022-11-20T09:04:28.192Z,16.88
2022-11-20T09:06:56.304Z,16.96
2022-11-20T09:09:25.126Z,17.15
2022-11-20T09:11:54.283Z,16.77
2022-11-20T09:14:22.804Z,16.83
2022-11-20T09:16:50.933Z,16.83
2022-11-20T09:19:34.994Z,16.66
2022-11-20T09:22:04.536Z,17.01
2022-11-20T09:24:33.054Z,17.43
2022-11-20T09:27:04.163Z,17.35
2022-11-20T09:29:32.853Z,17.64
2022-11-20T09:32:00.973Z,18.20
2022-11-20T09:34:29.378Z,17.88
2022-11-20T09:36:58.499Z,18.10
2022-11-20T09:39:28.591Z,17.94
2022-11-20T09:42:18.790Z,17.66
2022-11-20T09:45:00.035Z,18.23
2022-11-20T09:47:43.344Z,18.74
2022-11-20T09:50:51.347Z,17.30
2022-11-20T09:53:38.576Z,18.60
2022-11-20T09:56:12.393Z,18.08
2022-11-20T09:58:53.012Z,18.59
2022-11-20T10:01:31.647Z,18.74
2022-11-20T10:04:15.335Z,17.77
2022-11-20T10:07:30.668Z,18.37
2022-11-20T10:09:56.363Z,18.33
2022-11-20T10:12:50.335Z,17.86
2022-11-20T10:15:29.827Z,18.54
2022-11-20T10:18:12.143Z,18.32
2022-11-20T10:21:05.653Z,17.93
2022-11-20T10:24:04.253Z,18.58
2022-11-20T10:26:59.703Z,18.65
2022-11-20T10:29:35.602Z,19.68
2022-11-20T10:32:12.630Z,19.22
2022-11-20T10:34:59.992Z,19.48
2022-11-20T10:37:30.339Z,19.20
2022-11-20T10:40:26.042Z,19.88
2022-11-20T10:43:01.294Z,19.83
2022-11-20T10:45:41.582Z,20.24
2022-11-20T10:48:16.994Z,20.18
2022-11-20T10:51:01.080Z,20.68
2022-11-20T10:53:52.369Z,19.54
2022-11-20T10:56:26.738Z,20.55
2022-11-20T10:59:27.048Z,19.96
2022-11-20T11:01:55.230Z,19.49
2022-11-20T11:04:42.328Z,19.19
2022-11-20T11:07:32.390Z,18.72
2022-11-20T11:10:01.140Z,18.53
2022-11-20T11:12:30.183Z,18.65
2022-11-20T11:14:58.985Z,18.76
2022-11-20T11:17:30.579Z,19.16
2022-11-20T11:20:17.429Z,20.05
2022-11-20T11:22:50.573Z,20.24
2022-11-20T11:25:53.120Z,19.88
2022-11-20T11:28:26.809Z,19.46
2022-11-20T11:30:55.703Z,18.65
2022-11-20T11:33:27.655Z,18.88
2022-11-20T11:35:58.542Z,19.56
2022-11-20T11:38:41.959Z,20.98
2022-11-20T11:41:27.630Z,20.88
2022-11-20T11:44:36.761Z,20.60
2022-11-20T11:47:07.630Z,20.13
2022-11-20T11:49:36.480Z,20.98
2022-11-20T11:52:18.481Z,20.08
2022-11-20T11:55:01.049Z,19.32
2022-11-20T11:57:42.379Z,19.05
2022-11-20T12:00:15.001Z,19.73
2022-11-20T12:02:45.923Z,20.11
2022-11-20T12:05:27.440Z,20.54
2022-11-20T12:08:14.052Z,20.11
2022-11-20T12:10:48.141Z,19.80
2022-11-20T12:13:31.889Z,19.68
2022-11-20T12:16:02.050Z,19.90
2022-11-20T12:18:30.521Z,19.23
2022-11-20T12:21:24.341Z,20.23
2022-11-20T12:24:03.984Z,18.94
2022-11-20T12:26:50.641Z,18.89
2022-11-20T12:29:21.485Z,19.53
2022-11-20T12:32:19.850Z,19.44
2022-11-20T12:35:11.765Z,18.68
2022-11-20T12:37:46.078Z,19.51
2022-11-20T12:40:34.071Z,18.85
2022-11-20T12:43:41.650Z,20.08
2022-11-20T12:46:12.520Z,20.33
2022-11-20T12:48:56.050Z,18.71
2022-11-20T12:51:43.262Z,19.89
2022-11-20T12:54:32.633Z,19.71
2022-11-20T12:57:27.673Z,19.77
2022-11-20T13:00:08.486Z,20.29
2022-11-20T13:03:00.364Z,20.24
2022-11-20T13:05:47.376Z,20.31
2022-11-20T13:08:29.904Z,20.07
2022-11-20T13:10:58.063Z,19.87
2022-11-20T13:13:57.883Z,19.09
2022-11-20T13:16:39.874Z,18.86
2022-11-20T13:19:13.554Z,19.50
2022-11-20T13:21:52.815Z,19.95
2022-11-20T13:24:20.884Z,20.51
2022-11-20T13:27:00.603Z,20.56
2022-11-20T13:29:28.732Z,18.77
2022-11-20T13:32:23.232Z,19.30
2022-11-20T13:34:58.082Z,19.04
2022-11-20T13:37:30.031Z,18.91
2022-11-20T13:40:10.863Z,19.96
2022-11-20T13:42:52.323Z,19.75
2022-11-20T13:45:27.646Z,18.97
2022-11-20T13:47:58.913Z,19.78
2022-11-20T13:50:39.321Z,21.52
2022-11-20T13:53:32.514Z,21.93
2022-11-20T13:56:43.521Z,19.73
2022-11-20T13:59:41.699Z,19.22
2022-11-20T14:02:19.344Z,20.27
2022-11-20T14:04:51.005Z,20.97
2022-11-20T14:07:21.753Z,21.39
2022-11-20T14:09:56.017Z,21.77
2022-11-20T14:12:33.120Z,23.11
2022-11-20T14:15:01.289Z,23.84
2022-11-20T14:17:36.722Z,23.40
2022-11-20T14:20:13.847Z,22.84
2022-11-20T14:22:52.772Z,24.13
2022-11-20T14:25:26.113Z,25.25
2022-11-20T14:27:55.413Z,24.41
2022-11-20T14:30:30.543Z,24.46
2022-11-20T14:33:03.841Z,23.38
2022-11-20T14:35:35.531Z,23.49
2022-11-20T14:38:05.603Z,23.41
2022-11-20T14:40:37.903Z,22.80
2022-11-20T14:43:23.412Z,23.83
2022-11-20T14:46:01.712Z,25.25
2022-11-20T14:48:42.177Z,23.24
2022-11-20T14:51:29.539Z,25.10
2022-11-20T14:53:57.516Z,23.52
2022-11-20T14:56:26.352Z,23.05
2022-11-20T14:58:59.303Z,21.21
2022-11-20T15:01:28.913Z,22.53
2022-11-20T15:04:09.012Z,21.85
2022-11-20T15:06:39.686Z,19.59
2022-11-20T15:09:15.362Z,18.29
2022-11-20T15:12:04.402Z,17.68
2022-11-20T15:14:33.861Z,16.82
2022-11-20T15:17:02.886Z,16.63
2022-11-20T15:19:30.802Z,16.77
2022-11-20T15:22:00.274Z,16.38
2022-11-20T15:24:28.245Z,16.18
2022-11-20T15:26:56.447Z,16.50
2022-11-20T15:29:25.101Z,15.91
2022-11-20T15:31:55.496Z,16.31
2022-11-20T15:34:23.764Z,15.77
2022-11-20T15:36:52.623Z,16.38
2022-11-20T15:39:20.487Z,16.35
2022-11-20T15:41:48.701Z,15.86
2022-11-20T15:44:16.501Z,15.86
2022-11-20T15:46:46.388Z,15.73
2022-11-20T15:49:19.938Z,15.32
2022-11-20T15:51:50.947Z,15.34
2022-11-20T15:54:24.230Z,15.16
2022-11-20T15:56:55.427Z,15.47
2022-11-20T15:59:23.325Z,15.57
2022-11-20T16:01:51.601Z,15.30
2022-11-20T16:04:19.784Z,15.19
2022-11-20T16:06:48.031Z,15.45
2022-11-20T16:09:15.895Z,14.99
2022-11-20T16:11:44.346Z,15.33
2022-11-20T16:14:31.115Z,15.22
2022-11-20T16:16:59.323Z,15.18
2022-11-20T16:19:27.185Z,15.45
2022-11-20T16:22:01.164Z,15.26
2022-11-20T16:24:31.460Z,15.16
2022-11-20T16:27:00.276Z,15.01
2022-11-20T16:29:28.683Z,14.95
2022-11-20T16:31:58.165Z,14.99
2022-11-20T16:34:26.165Z,15.00
2022-11-20T16:36:54.625Z,14.91
2022-11-20T16:39:24.100Z,14.90
2022-11-20T16:41:52.574Z,14.85
2022-11-20T16:44:21.912Z,14.86
2022-11-20T16:46:50.617Z,14.84
2022-11-20T16:49:18.634Z,14.72
2022-11-20T16:51:47.246Z,14.66
2022-11-20T16:54:20.546Z,14.52
2022-11-20T16:56:51.199Z,14.53
2022-11-20T16:59:19.400Z,14.50
2022-11-20T17:01:47.743Z,14.62
2022-11-20T17:04:16.238Z,14.40
2022-11-20T17:06:45.245Z,14.43
2022-11-20T17:09:14.016Z,14.28
2022-11-20T17:11:43.531Z,14.33
2022-11-20T17:14:12.324Z,14.18
2022-11-20T17:16:40.805Z,14.13
2022-11-20T17:19:09.982Z,14.10
2022-11-20T17:21:41.376Z,14.18
2022-11-20T17:24:12.134Z,14.00
2022-11-20T17:26:42.378Z,13.92
2022-11-20T17:29:18.766Z,14.10
2022-11-20T17:31:47.655Z,13.88
2022-11-20T17:34:16.573Z,14.00
2022-11-20T17:36:46.035Z,13.92
2022-11-20T17:39:15.969Z,13.77
2022-11-20T17:41:44.758Z,13.72
2022-11-20T17:44:13.465Z,13.51
2022-11-20T17:46:42.840Z,13.52
2022-11-20T17:49:10.738Z,13.55
2022-11-20T17:51:39.031Z,13.57
2022-11-20T17:54:09.602Z,13.55
2022-11-20T17:56:56.478Z,13.35
2022-11-20T17:59:24.445Z,13.46
2022-11-20T18:01:52.916Z,13.18
2022-11-20T18:04:21.445Z,13.30
2022-11-20T18:06:51.411Z,13.51
2022-11-20T18:09:19.526Z,13.23
2022-11-20T18:11:47.816Z,13.23
2022-11-20T18:14:26.752Z,13.36
2022-11-20T18:17:01.481Z,13.30
2022-11-20T18:19:33.171Z,13.16
2022-11-20T18:22:04.327Z,13.17
2022-11-20T18:24:33.159Z,13.11
2022-11-20T18:27:01.431Z,12.93
2022-11-20T18:29:31.478Z,12.92
2022-11-20T18:32:00.806Z,13.01
2022-11-20T18:34:29.637Z,12.85
2022-11-20T18:36:59.196Z,12.76
2022-11-20T18:39:27.095Z,12.86
2022-11-20T18:42:14.527Z,12.56
2022-11-20T18:44:51.728Z,12.53
2022-11-20T18:47:32.735Z,12.51
2022-11-20T18:50:02.365Z,12.67
2022-11-20T18:52:35.678Z,12.54
2022-11-20T18:55:05.332Z,12.64
2022-11-20T18:57:34.747Z,12.56
2022-11-20T19:00:08.404Z,12.32
2022-11-20T19:02:42.303Z,12.24
2022-11-20T19:05:14.996Z,12.06
2022-11-20T19:07:43.386Z,12.17
2022-11-20T19:10:11.389Z,12.14
2022-11-20T19:12:39.584Z,12.27
2022-11-20T19:15:07.792Z,11.96
2022-11-20T19:17:36.030Z,12.04
2022-11-20T19:20:04.087Z,12.01
2022-11-20T19:22:32.247Z,12.08
2022-11-20T19:25:00.179Z,11.88
2022-11-20T19:27:28.391Z,11.89
2022-11-20T19:30:03.574Z,11.79
2022-11-20T19:32:33.216Z,11.94
2022-11-20T19:35:01.065Z,11.92
2022-11-20T19:37:29.340Z,11.92
2022-11-20T19:39:59.948Z,11.91
2022-11-20T19:42:28.118Z,11.84
2022-11-20T19:44:56.265Z,11.77
2022-11-20T19:47:35.397Z,11.77
2022-11-20T19:50:13.404Z,11.75
2022-11-20T19:52:42.206Z,11.72
2022-11-20T19:55:11.348Z,11.57
2022-11-20T19:57:39.597Z,11.52
2022-11-20T20:00:08.404Z,11.51
2022-11-20T20:02:37.955Z,11.44
2022-11-20T20:05:06.347Z,11.43
2022-11-20T20:07:34.721Z,11.25
2022-11-20T20:10:02.566Z,11.39
2022-11-20T20:12:31.791Z,11.37
2022-11-20T20:14:59.716Z,11.50
2022-11-20T20:17:28.992Z,11.44
2022-11-20T20:19:57.020Z,11.41
2022-11-20T20:22:25.269Z,11.36
2022-11-20T20:24:53.383Z,11.56
2022-11-20T20:27:22.116Z,11.27
2022-11-20T20:29:52.541Z,11.13
2022-11-20T20:32:21.867Z,10.89
2022-11-20T20:34:49.844Z,10.95
2022-11-20T20:37:18.042Z,10.83
2022-11-20T20:39:46.358Z,10.62
2022-11-20T20:42:14.698Z,10.84
2022-11-20T20:45:02.266Z,11.00
2022-11-20T20:47:41.434Z,11.18
2022-11-20T20:50:12.052Z,10.97
2022-11-20T20:52:40.876Z,11.07
2022-11-20T20:55:11.578Z,11.07
2022-11-20T20:57:43.151Z,10.91
2022-11-20T21:00:11.504Z,10.87
2022-11-20T21:02:39.753Z,10.94
2022-11-20T21:05:08.752Z,11.03
2022-11-20T21:07:59.346Z,11.12
2022-11-20T21:10:32.235Z,11.08
2022-11-20T21:13:02.474Z,11.01
2022-11-20T21:15:30.377Z,10.82
2022-11-20T21:17:58.586Z,10.75
2022-11-20T21:20:46.236Z,10.81
2022-11-20T21:23:15.616Z,10.68
2022-11-20T21:25:43.694Z,10.57
2022-11-20T21:28:15.625Z,10.63
2022-11-20T21:30:47.005Z,10.71
2022-11-20T21:33:15.282Z,10.89
2022-11-20T21:35:43.181Z,10.81
2022-11-20T21:38:11.423Z,10.66
2022-11-20T21:40:39.305Z,10.63
2022-11-20T21:43:08.305Z,10.98
2022-11-20T21:45:36.187Z,10.78
2022-11-20T21:48:04.734Z,10.54
2022-11-20T21:50:35.395Z,10.47
2022-11-20T21:53:03.648Z,10.46
2022-11-20T21:55:31.490Z,10.54
2022-11-20T21:57:59.895Z,10.66
2022-11-20T22:00:27.705Z,10.51
2022-11-20T22:02:55.967Z,10.70
2022-11-20T22:05:23.815Z,10.61
2022-11-20T22:07:53.144Z,10.50
2022-11-20T22:10:21.013Z,10.40
2022-11-20T22:12:49.235Z,10.46
2022-11-20T22:15:33.057Z,10.46
2022-11-20T22:18:14.165Z,10.59
2022-11-20T22:20:42.380Z,10.44
2022-11-20T22:23:11.729Z,10.26
2022-11-20T22:25:39.700Z,10.18
2022-11-20T22:28:07.845Z,10.09
2022-11-20T22:30:35.646Z,10.28
2022-11-20T22:33:06.716Z,10.13
2022-11-20T22:35:38.469Z,10.43
2022-11-20T22:38:08.200Z,10.25
2022-11-20T22:40:36.210Z,10.36
2022-11-20T22:43:04.538Z,10.21
2022-11-20T22:45:32.707Z,10.32
2022-11-20T22:48:01.028Z,10.36
2022-11-20T22:50:29.755Z,10.38
2022-11-20T22:52:58.239Z,10.46
2022-11-20T22:55:26.237Z,10.63
2022-11-20T22:57:54.538Z,10.47
2022-11-20T23:00:22.683Z,10.35
2022-11-20T23:02:51.058Z,10.56
2022-11-20T23:05:19.028Z,10.56
2022-11-20T23:07:47.402Z,10.40
2022-11-20T23:10:15.475Z,10.57
2022-11-20T23:12:43.859Z,10.57
2022-11-20T23:15:11.937Z,10.47
2022-11-20T23:17:40.209Z,10.33
2022-11-20T23:20:10.210Z,10.29
2022-11-20T23:22:39.658Z,10.21
2022-11-20T23:25:08.422Z,10.57
2022-11-20T23:27:38.087Z,10.51
2022-11-20T23:30:06.760Z,10.67
2022-11-20T23:32:36.351Z,10.68
2022-11-20T23:35:04.447Z,10.38
2022-11-20T23:37:32.806Z,10.48
2022-11-20T23:40:00.728Z,10.63
2022-11-20T23:42:29.045Z,10.81
2022-11-20T23:44:57.097Z,10.55
2022-11-20T23:47:24.900Z,10.56
2022-11-20T23:49:53.763Z,10.64
2022-11-20T23:52:23.339Z,10.95
2022-11-20T23:54:53.009Z,10.62
2022-11-20T23:57:20.988Z,10.61
2022-11-20T23:59:50.549Z,10.50
